createdAt,value
2017-09-03T00:01:50.611Z,15.20
2017-09-03T00:05:00.238Z,14.90
2017-09-03T00:08:10.528Z,11.57
2017-09-03T00:11:20.372Z,13.07
2017-09-03T00:14:30.948Z,12.93
2017-09-03T00:17:41.283Z,13.67
2017-09-03T00:20:51.484Z,15.37
2017-09-03T00:24:01.888Z,11.68
2017-09-03T00:27:12.206Z,14.23
2017-09-03T00:30:23.057Z,12.32
2017-09-03T00:33:32.993Z,11.88
2017-09-03T00:36:43.576Z,13.63
2017-09-03T00:39:54.166Z,11.30
2017-09-03T00:43:04.099Z,11.95
2017-09-03T00:46:15.049Z,11.57
2017-09-03T00:49:24.527Z,12.35
2017-09-03T00:52:34.488Z,12.68
2017-09-03T00:55:44.916Z,15.93
2017-09-03T00:58:55.204Z,14.20
2017-09-03T01:02:05.591Z,10.30
2017-09-03T01:05:16.968Z,12.40
2017-09-03T01:08:27.362Z,13.63
2017-09-03T01:11:37.798Z,15.32
2017-09-03T01:14:48.172Z,16.87
2017-09-03T01:17:58.429Z,12.47
2017-09-03T01:21:08.475Z,13.60
2017-09-03T01:24:18.419Z,12.90
2017-09-03T01:27:29.188Z,15.18
2017-09-03T01:30:39.373Z,14.70
2017-09-03T01:33:49.319Z,13.70
2017-09-03T01:36:59.452Z,14.95
2017-09-03T01:40:10.006Z,13.27
2017-09-03T01:43:20.604Z,15.73
2017-09-03T01:46:31.156Z,11.80
2017-09-03T01:49:41.070Z,16.62
2017-09-03T01:52:51.484Z,14.20
2017-09-03T01:56:01.980Z,11.90
2017-09-03T01:59:12.460Z,16.13
2017-09-03T02:02:22.361Z,11.97
2017-09-03T02:05:32.925Z,11.15
2017-09-03T02:08:43.064Z,12.18
2017-09-03T02:11:53.289Z,14.10
2017-09-03T02:15:03.613Z,11.80
2017-09-03T02:18:14.215Z,13.63
2017-09-03T02:21:24.463Z,17.63
2017-09-03T02:24:35.144Z,14.03
2017-09-03T02:27:45.322Z,12.80
2017-09-03T02:30:56.140Z,13.90
2017-09-03T02:34:06.337Z,12.57
2017-09-03T02:37:17.080Z,14.02
2017-09-03T02:40:27.373Z,12.53
2017-09-03T02:43:38.097Z,14.63
2017-09-03T02:46:48.089Z,9.80
2017-09-03T02:49:58.057Z,10.20
2017-09-03T02:53:08.607Z,12.20
2017-09-03T02:56:19.208Z,15.83
2017-09-03T02:59:30.024Z,11.80
2017-09-03T03:02:40.426Z,10.60
2017-09-03T03:05:50.484Z,14.30
2017-09-03T03:09:00.556Z,13.23
2017-09-03T03:12:11.625Z,14.73
2017-09-03T03:15:21.403Z,15.03
2017-09-03T03:18:31.329Z,13.20
2017-09-03T03:21:41.976Z,13.02
2017-09-03T03:24:52.893Z,13.75
2017-09-03T03:28:02.932Z,15.02
2017-09-03T03:31:13.259Z,14.33
2017-09-03T03:34:23.892Z,18.83
2017-09-03T03:37:34.177Z,16.33
2017-09-03T03:40:44.378Z,17.30
2017-09-03T03:43:54.669Z,13.15
2017-09-03T03:47:05.315Z,14.60
2017-09-03T03:50:15.865Z,14.13
2017-09-03T03:53:26.233Z,11.27
2017-09-03T03:56:36.129Z,16.50
2017-09-03T03:59:46.169Z,14.65
2017-09-03T04:02:56.930Z,16.23
2017-09-03T04:06:07.155Z,17.53
2017-09-03T04:09:17.864Z,14.80
2017-09-03T04:12:28.188Z,14.00
2017-09-03T04:15:38.756Z,14.87
2017-09-03T04:18:48.689Z,14.38
2017-09-03T04:21:58.930Z,14.13
2017-09-03T04:25:09.795Z,14.82
2017-09-03T04:28:20.037Z,13.70
2017-09-03T04:31:30.900Z,13.20
2017-09-03T04:34:40.588Z,18.37
2017-09-03T04:37:50.573Z,15.45
2017-09-03T04:41:00.874Z,16.65
2017-09-03T04:44:11.056Z,17.97
2017-09-03T04:47:21.395Z,15.48
2017-09-03T04:50:31.540Z,13.25
2017-09-03T04:53:41.654Z,14.00
2017-09-03T04:56:51.852Z,13.40
2017-09-03T05:00:02.665Z,16.43
2017-09-03T05:03:13.925Z,13.30
2017-09-03T05:06:24.209Z,15.47
2017-09-03T05:09:34.312Z,12.55
2017-09-03T05:12:44.579Z,12.77
2017-09-03T05:15:55.150Z,14.47
2017-09-03T05:19:05.421Z,15.37
2017-09-03T05:22:15.115Z,15.73
2017-09-03T05:25:26.358Z,16.47
2017-09-03T05:28:36.967Z,16.30
2017-09-03T05:31:47.080Z,14.53
2017-09-03T05:34:56.812Z,18.60
2017-09-03T05:38:07.114Z,16.30
2017-09-03T05:41:17.316Z,18.60
2017-09-03T05:44:27.482Z,20.83
2017-09-03T05:47:37.752Z,22.95
2017-09-03T05:50:47.948Z,21.30
2017-09-03T05:53:58.405Z,24.90
2017-09-03T05:57:08.779Z,25.93
2017-09-03T06:00:19.452Z,25.23
2017-09-03T06:03:29.609Z,26.93
2017-09-03T06:06:39.538Z,30.87
2017-09-03T06:09:49.287Z,23.20
2017-09-03T06:12:59.421Z,17.70
2017-09-03T06:16:09.934Z,26.40
2017-09-03T06:19:20.436Z,23.57
2017-09-03T06:22:30.221Z,22.77
2017-09-03T06:25:40.424Z,28.13
2017-09-03T06:28:50.799Z,30.20
2017-09-03T06:32:01.273Z,25.33
2017-09-03T06:35:11.536Z,32.70
2017-09-03T06:38:23.212Z,28.60
2017-09-03T06:41:33.535Z,23.30
2017-09-03T06:44:44.126Z,24.13
2017-09-03T06:47:54.515Z,33.30
2017-09-03T06:51:04.756Z,26.55
2017-09-03T06:54:14.872Z,29.03
2017-09-03T06:57:25.580Z,28.52
2017-09-03T07:00:35.451Z,30.62
2017-09-03T07:03:46.291Z,25.83
2017-09-03T07:06:56.674Z,27.37
2017-09-03T07:10:07.352Z,32.07
2017-09-03T07:13:17.940Z,24.45
2017-09-03T07:16:28.526Z,25.90
2017-09-03T07:19:38.539Z,27.47
2017-09-03T07:22:49.247Z,34.47
2017-09-03T07:25:59.973Z,25.15
2017-09-03T07:29:10.271Z,28.00
2017-09-03T07:32:20.375Z,30.50
2017-09-03T07:35:31.021Z,26.50
2017-09-03T07:38:41.638Z,28.48
2017-09-03T07:41:52.209Z,28.07
2017-09-03T07:45:02.166Z,27.15
2017-09-03T07:48:13.596Z,32.78
2017-09-03T07:51:24.134Z,32.50
2017-09-03T07:54:34.818Z,31.60
2017-09-03T07:57:45.079Z,31.55
2017-09-03T08:00:55.314Z,35.80
2017-09-03T08:04:06.005Z,27.23
2017-09-03T08:07:16.320Z,34.67
2017-09-03T08:10:27.766Z,31.03
2017-09-03T08:13:37.843Z,23.92
2017-09-03T08:16:49.088Z,32.27
2017-09-03T08:19:59.756Z,24.00
2017-09-03T08:23:10.010Z,27.90
2017-09-03T08:26:25.184Z,28.75
2017-09-03T08:29:35.661Z,24.25
2017-09-03T08:32:45.981Z,28.63
2017-09-03T08:35:56.480Z,21.95
2017-09-03T08:39:07.561Z,21.50
2017-09-03T08:42:18.977Z,25.45
2017-09-03T08:45:29.808Z,27.00
2017-09-03T08:48:39.641Z,21.63
2017-09-03T08:51:49.770Z,23.33
2017-09-03T08:54:59.611Z,25.90
2017-09-03T08:58:10.569Z,22.43
2017-09-03T09:01:21.130Z,22.10
2017-09-03T09:04:31.849Z,23.90
2017-09-03T09:07:42.370Z,25.23
2017-09-03T09:10:54.030Z,27.83
2017-09-03T09:14:03.869Z,27.77
2017-09-03T09:17:13.950Z,28.83
2017-09-03T09:20:23.823Z,23.27
2017-09-03T09:23:34.289Z,24.43
2017-09-03T09:26:44.735Z,26.17
2017-09-03T09:29:55.022Z,23.23
2017-09-03T09:33:05.238Z,24.60
2017-09-03T09:36:14.901Z,20.47
2017-09-03T09:39:25.842Z,23.80
2017-09-03T09:42:36.472Z,22.52
2017-09-03T09:45:46.921Z,23.13
2017-09-03T09:48:56.866Z,22.17
2017-09-03T09:52:06.659Z,19.58
2017-09-03T09:55:16.689Z,15.32
2017-09-03T09:58:26.938Z,19.90
2017-09-03T10:01:36.918Z,21.42
2017-09-03T10:04:47.184Z,23.77
2017-09-03T10:07:57.719Z,22.67
2017-09-03T10:11:08.092Z,23.20
2017-09-03T10:14:17.994Z,21.67
2017-09-03T10:17:28.509Z,21.10
2017-09-03T10:20:39.072Z,19.63
2017-09-03T10:23:49.733Z,25.80
2017-09-03T10:27:00.174Z,19.57
2017-09-03T10:30:10.106Z,23.43
2017-09-03T10:33:19.946Z,22.73
2017-09-03T10:36:30.891Z,18.60
2017-09-03T10:39:41.054Z,21.77
2017-09-03T10:42:51.121Z,18.50
2017-09-03T10:46:01.863Z,16.65
2017-09-03T10:49:12.085Z,18.47
2017-09-03T10:52:22.914Z,16.67
2017-09-03T10:55:32.852Z,17.12
2017-09-03T10:58:43.245Z,16.97
2017-09-03T11:01:53.896Z,18.73
2017-09-03T11:05:04.193Z,13.37
2017-09-03T11:08:14.209Z,9.83
2017-09-03T11:11:24.396Z,10.93
2017-09-03T11:14:34.420Z,14.03
2017-09-03T11:17:44.440Z,13.00
2017-09-03T11:20:54.525Z,12.90
2017-09-03T11:24:04.465Z,11.77
2017-09-03T11:27:14.765Z,9.47
2017-09-03T11:30:25.097Z,12.63
2017-09-03T11:33:35.498Z,12.50
2017-09-03T11:36:45.604Z,13.47
2017-09-03T11:39:56.542Z,9.02
2017-09-03T11:43:06.455Z,10.57
2017-09-03T11:46:16.441Z,9.43
2017-09-03T11:49:26.787Z,11.47
2017-09-03T11:52:36.825Z,12.03
2017-09-03T11:55:46.923Z,8.85
2017-09-03T11:58:57.089Z,11.00
2017-09-03T12:02:07.932Z,9.38
2017-09-03T12:05:19.033Z,9.90
2017-09-03T12:08:28.963Z,12.47
2017-09-03T12:11:39.424Z,8.40
2017-09-03T12:14:50.016Z,8.68
2017-09-03T12:18:00.366Z,12.00
2017-09-03T12:21:11.925Z,12.50
2017-09-03T12:24:22.365Z,10.40
2017-09-03T12:27:32.203Z,10.60
2017-09-03T12:30:41.924Z,11.27
2017-09-03T12:33:52.448Z,10.23
2017-09-03T12:37:03.045Z,9.53
2017-09-03T12:40:13.105Z,11.60
2017-09-03T12:43:23.056Z,11.23
2017-09-03T12:46:33.025Z,9.73
2017-09-03T12:49:43.384Z,7.20
2017-09-03T12:52:54.434Z,7.30
2017-09-03T12:56:04.615Z,12.57
2017-09-03T12:59:14.681Z,5.23
2017-09-03T13:02:24.316Z,6.82
2017-09-03T13:05:34.784Z,5.60
2017-09-03T13:08:44.631Z,6.50
2017-09-03T13:11:55.145Z,8.00
2017-09-03T13:15:05.614Z,5.22
2017-09-03T13:18:16.036Z,6.47
2017-09-03T13:21:26.125Z,5.63
2017-09-03T13:24:36.146Z,5.53
2017-09-03T13:27:46.326Z,5.93
2017-09-03T13:30:56.454Z,7.27
2017-09-03T13:34:07.181Z,5.82
2017-09-03T13:37:17.134Z,7.68
2017-09-03T13:40:26.967Z,5.67
2017-09-03T13:43:38.236Z,5.10
2017-09-03T13:46:47.688Z,6.22
2017-09-03T13:49:58.048Z,5.00
2017-09-03T13:53:07.925Z,4.60
2017-09-03T13:56:17.613Z,8.97
2017-09-03T13:59:28.185Z,5.00
2017-09-03T14:02:38.584Z,5.40
2017-09-03T14:05:48.929Z,6.40
2017-09-03T14:08:58.933Z,6.90
2017-09-03T14:12:09.882Z,5.85
2017-09-03T14:15:19.956Z,9.13
2017-09-03T14:18:30.315Z,5.55
2017-09-03T14:21:40.564Z,5.70
2017-09-03T14:24:50.448Z,8.15
2017-09-03T14:28:00.768Z,5.23
2017-09-03T14:31:10.919Z,7.13
2017-09-03T14:34:21.458Z,6.05
2017-09-03T14:37:31.147Z,6.28
2017-09-03T14:40:41.157Z,5.93
2017-09-03T14:43:51.384Z,8.70
2017-09-03T14:47:01.081Z,5.87
2017-09-03T14:50:11.719Z,5.70
2017-09-03T14:53:21.486Z,7.50
2017-09-03T14:56:32.123Z,5.80
2017-09-03T14:59:42.374Z,7.05
2017-09-03T15:02:53.168Z,5.97
2017-09-03T15:06:03.181Z,5.75
2017-09-03T15:09:17.056Z,7.18
2017-09-03T15:12:27.227Z,6.90
2017-09-03T15:15:37.682Z,6.90
2017-09-03T15:18:47.643Z,7.50
2017-09-03T15:21:58.284Z,5.53
2017-09-03T15:25:09.112Z,5.37
2017-09-03T15:28:19.002Z,6.97
2017-09-03T15:31:29.678Z,6.25
2017-09-03T15:34:39.846Z,6.10
2017-09-03T15:37:50.292Z,6.65
2017-09-03T15:41:00.536Z,6.67
2017-09-03T15:44:10.516Z,6.20
2017-09-03T15:47:20.507Z,6.85
2017-09-03T15:50:30.755Z,5.50
2017-09-03T15:53:40.620Z,6.30
2017-09-03T15:56:50.578Z,5.07
2017-09-03T16:00:00.734Z,5.60
2017-09-03T16:03:10.857Z,7.78
2017-09-03T16:06:21.022Z,5.85
2017-09-03T16:09:30.965Z,7.50
2017-09-03T16:12:40.957Z,5.80
2017-09-03T16:15:51.805Z,5.80
2017-09-03T16:19:02.168Z,6.28
2017-09-03T16:22:12.632Z,7.85
2017-09-03T16:25:23.513Z,7.50
2017-09-03T16:28:33.814Z,7.10
2017-09-03T16:31:43.858Z,7.30
2017-09-03T16:34:53.989Z,7.00
2017-09-03T16:38:04.346Z,6.70
2017-09-03T16:41:15.052Z,6.43
2017-09-03T16:44:25.371Z,9.18
2017-09-03T16:47:35.140Z,6.77
2017-09-03T16:50:45.324Z,7.95
2017-09-03T16:53:56.195Z,8.90
2017-09-03T16:57:06.560Z,7.13
2017-09-03T17:00:16.753Z,6.30
2017-09-03T17:03:27.155Z,7.63
2017-09-03T17:06:36.818Z,7.53
2017-09-03T17:09:46.690Z,6.80
2017-09-03T17:12:56.747Z,6.68
2017-09-03T17:16:07.204Z,5.80
2017-09-03T17:19:16.976Z,9.43
2017-09-03T17:22:27.901Z,8.85
2017-09-03T17:25:38.199Z,9.40
2017-09-03T17:28:48.455Z,9.48
2017-09-03T17:31:58.495Z,7.07
2017-09-03T17:38:55.592Z,7.60
2017-09-03T17:42:09.243Z,7.72
2017-09-03T17:45:18.942Z,5.03
2017-09-03T17:48:28.972Z,7.10
2017-09-03T17:51:39.040Z,8.00
2017-09-03T17:54:49.225Z,6.53
2017-09-03T17:57:59.641Z,7.22
2017-09-03T18:01:10.256Z,9.55
2017-09-03T18:04:20.118Z,6.45
2017-09-03T18:07:30.821Z,7.90
2017-09-03T18:10:40.389Z,10.23
2017-09-03T18:13:50.680Z,7.83
2017-09-03T18:17:00.555Z,7.93
2017-09-03T18:20:11.365Z,9.07
2017-09-03T18:23:21.539Z,7.47
2017-09-03T18:26:31.873Z,7.07
2017-09-03T18:29:42.041Z,9.43
2017-09-03T18:32:52.367Z,8.80
2017-09-03T18:36:04.904Z,6.90
2017-09-03T18:42:59.190Z,8.27
2017-09-03T18:46:13.559Z,6.40
2017-09-03T18:49:23.444Z,6.23
2017-09-03T18:52:43.480Z,6.37
2017-09-03T18:55:56.945Z,6.57
2017-09-03T18:59:09.969Z,9.73
2017-09-03T19:02:22.032Z,8.70
2017-09-03T19:05:32.336Z,8.10
2017-09-03T19:08:42.987Z,8.82
2017-09-03T19:11:53.451Z,7.67
2017-09-03T19:15:03.704Z,7.17
2017-09-03T19:18:13.572Z,5.77
2017-09-03T19:21:24.244Z,7.35
2017-09-03T19:24:34.463Z,7.20
2017-09-03T19:27:44.552Z,8.47
2017-09-03T19:30:56.181Z,7.85
2017-09-03T19:34:06.704Z,9.83
2017-09-03T19:37:18.037Z,7.40
2017-09-03T19:40:28.307Z,7.55
2017-09-03T19:43:38.333Z,8.05
2017-09-03T19:46:49.317Z,7.60
2017-09-03T19:49:59.474Z,8.77
2017-09-03T19:53:09.424Z,8.88
2017-09-03T19:56:19.756Z,10.80
2017-09-03T19:59:29.753Z,7.20
2017-09-03T20:02:39.913Z,9.23
2017-09-03T20:05:49.660Z,6.50
2017-09-03T20:08:59.988Z,10.53
2017-09-03T20:12:11.217Z,7.28
2017-09-03T20:15:21.376Z,6.95
2017-09-03T20:18:31.526Z,8.18
2017-09-03T20:21:41.574Z,9.57
2017-09-03T20:24:51.421Z,8.57
2017-09-03T20:28:01.483Z,9.23
2017-09-03T20:31:11.748Z,8.30
2017-09-03T20:34:22.345Z,8.13
2017-09-03T20:37:32.300Z,8.05
2017-09-03T20:40:42.441Z,10.38
2017-09-03T20:43:53.210Z,10.30
2017-09-03T20:47:04.350Z,9.30
2017-09-03T20:50:15.859Z,9.80
2017-09-03T20:53:25.904Z,7.67
2017-09-03T20:56:36.294Z,9.47
2017-09-03T20:59:46.748Z,8.50
2017-09-03T21:02:56.741Z,8.82
2017-09-03T21:06:06.760Z,10.27
2017-09-03T21:09:17.136Z,9.48
2017-09-03T21:12:27.804Z,7.50
2017-09-03T21:15:37.740Z,8.98
2017-09-03T21:18:47.776Z,11.27
2017-09-03T21:21:58.041Z,9.33
2017-09-03T21:25:08.744Z,7.72
2017-09-03T21:28:19.109Z,11.67
2017-09-03T21:31:29.027Z,9.63
2017-09-03T21:34:38.996Z,10.70
2017-09-03T21:37:49.040Z,8.80
2017-09-03T21:40:59.388Z,10.25
2017-09-03T21:44:09.799Z,8.27
2017-09-03T21:47:20.035Z,15.73
2017-09-03T21:50:31.042Z,9.60
2017-09-03T21:53:41.205Z,8.13
2017-09-03T21:56:51.598Z,10.50
2017-09-03T22:00:02.360Z,8.95
2017-09-03T22:03:12.613Z,13.00
2017-09-03T22:06:23.031Z,9.75
2017-09-03T22:09:33.300Z,9.40
2017-09-03T22:12:43.702Z,11.03
2017-09-03T22:15:53.649Z,9.47
2017-09-03T22:19:04.183Z,9.30
2017-09-03T22:22:14.169Z,7.73
2017-09-03T22:25:25.145Z,6.90
2017-09-03T22:28:35.542Z,9.40
2017-09-03T22:31:46.173Z,7.93
2017-09-03T22:34:56.227Z,7.53
2017-09-03T22:38:06.866Z,10.60
2017-09-03T22:41:16.731Z,7.60
2017-09-03T22:44:27.068Z,9.50
2017-09-03T22:47:36.979Z,7.70
2017-09-03T22:50:46.823Z,10.57
2017-09-03T22:53:56.907Z,8.60
2017-09-03T22:57:07.456Z,7.20
2017-09-03T23:00:18.378Z,7.30
2017-09-03T23:03:28.477Z,7.40
2017-09-03T23:06:38.530Z,9.60
2017-09-03T23:09:49.180Z,7.43
2017-09-03T23:12:59.227Z,7.45
2017-09-03T23:16:09.518Z,7.07
2017-09-03T23:19:20.202Z,6.97
2017-09-03T23:22:36.422Z,8.70
2017-09-03T23:25:46.295Z,8.27
2017-09-03T23:28:57.833Z,9.30
2017-09-03T23:32:08.634Z,8.98
2017-09-03T23:35:19.095Z,8.73
2017-09-03T23:38:29.024Z,6.60
2017-09-03T23:42:41.518Z,9.45
2017-09-03T23:45:52.254Z,5.75
2017-09-03T23:49:03.211Z,7.80
2017-09-03T23:52:13.247Z,8.20
2017-09-03T23:55:23.516Z,6.97
2017-09-03T23:58:33.159Z,6.97
